sensor_id;sensor_type;location;lat;lon;timestamp;P1;durP1;ratioP1;P2;durP2;ratioP2
7607;SDS011;3845;48.120;11.534;2022-10-26T00:00:35;3.60;;;2.30;;
7607;SDS011;3845;48.120;11.534;2022-10-26T00:03:00;3.60;;;1.90;;
7607;SDS011;3845;48.120;11.534;2022-10-26T00:05:26;2.67;;;2.03;;
7607;SDS011;3845;48.120;11.534;2022-10-26T00:07:51;2.83;;;1.83;;
7607;SDS011;3845;48.120;11.534;2022-10-26T00:10:16;1.97;;;1.70;;
7607;SDS011;3845;48.120;11.534;2022-10-26T00:12:42;3.30;;;1.90;;
7607;SDS011;3845;48.120;11.534;2022-10-26T00:15:07;2.60;;;1.97;;
7607;SDS011;3845;48.120;11.534;2022-10-26T00:17:33;2.13;;;1.83;;
7607;SDS011;3845;48.120;11.534;2022-10-26T00:19:58;2.30;;;1.90;;
7607;SDS011;3845;48.120;11.534;2022-10-26T00:22:24;3.30;;;1.97;;
7607;SDS011;3845;48.120;11.534;2022-10-26T00:24:53;3.57;;;1.90;;
7607;SDS011;3845;48.120;11.534;2022-10-26T00:27:18;2.47;;;1.90;;
7607;SDS011;3845;48.120;11.534;2022-10-26T00:29:43;2.00;;;1.80;;
7607;SDS011;3845;48.120;11.534;2022-10-26T00:32:09;1.90;;;1.70;;
7607;SDS011;3845;48.120;11.534;2022-10-26T00:34:34;2.27;;;1.90;;
7607;SDS011;3845;48.120;11.534;2022-10-26T00:36:59;3.30;;;1.90;;
7607;SDS011;3845;48.120;11.534;2022-10-26T00:39:25;2.20;;;1.70;;
7607;SDS011;3845;48.120;11.534;2022-10-26T00:41:50;2.97;;;1.90;;
7607;SDS011;3845;48.120;11.534;2022-10-26T00:47:16;2.30;;;1.70;;
7607;SDS011;3845;48.120;11.534;2022-10-26T00:50:00;2.40;;;1.90;;
7607;SDS011;3845;48.120;11.534;2022-10-26T00:52:28;2.37;;;1.70;;
7607;SDS011;3845;48.120;11.534;2022-10-26T00:54:53;2.23;;;1.80;;
7607;SDS011;3845;48.120;11.534;2022-10-26T00:57:19;3.13;;;1.80;;
7607;SDS011;3845;48.120;11.534;2022-10-26T00:59:44;3.77;;;1.80;;
7607;SDS011;3845;48.120;11.534;2022-10-26T01:02:10;2.80;;;1.80;;
7607;SDS011;3845;48.120;11.534;2022-10-26T01:04:36;2.50;;;2.07;;
7607;SDS011;3845;48.120;11.534;2022-10-26T01:07:02;2.13;;;1.90;;
7607;SDS011;3845;48.120;11.534;2022-10-26T01:09:28;2.27;;;1.80;;
7607;SDS011;3845;48.120;11.534;2022-10-26T01:11:53;3.27;;;1.80;;
7607;SDS011;3845;48.120;11.534;2022-10-26T01:14:19;2.20;;;1.60;;
7607;SDS011;3845;48.120;11.534;2022-10-26T01:27:17;2.10;;;1.60;;
7607;SDS011;3845;48.120;11.534;2022-10-26T01:30:16;2.00;;;1.40;;
7607;SDS011;3845;48.120;11.534;2022-10-26T01:32:44;2.10;;;1.60;;
7607;SDS011;3845;48.120;11.534;2022-10-26T01:37:47;2.10;;;1.70;;
7607;SDS011;3845;48.120;11.534;2022-10-26T01:40:35;2.00;;;1.73;;
7607;SDS011;3845;48.120;11.534;2022-10-26T01:43:04;2.37;;;1.63;;
7607;SDS011;3845;48.120;11.534;2022-10-26T01:45:31;3.90;;;1.67;;
7607;SDS011;3845;48.120;11.534;2022-10-26T01:47:57;2.03;;;1.67;;
7607;SDS011;3845;48.120;11.534;2022-10-26T01:50:23;2.60;;;1.60;;
7607;SDS011;3845;48.120;11.534;2022-10-26T01:52:49;1.83;;;1.40;;
7607;SDS011;3845;48.120;11.534;2022-10-26T01:58:04;1.80;;;1.53;;
7607;SDS011;3845;48.120;11.534;2022-10-26T02:00:36;1.97;;;1.33;;
7607;SDS011;3845;48.120;11.534;2022-10-26T02:03:23;1.90;;;1.50;;
7607;SDS011;3845;48.120;11.534;2022-10-26T02:06:56;1.70;;;1.50;;
7607;SDS011;3845;48.120;11.534;2022-10-26T02:12:06;2.10;;;1.57;;
7607;SDS011;3845;48.120;11.534;2022-10-26T02:14:44;2.10;;;1.40;;
7607;SDS011;3845;48.120;11.534;2022-10-26T02:19:50;4.27;;;2.67;;
7607;SDS011;3845;48.120;11.534;2022-10-26T02:22:31;2.90;;;2.20;;
7607;SDS011;3845;48.120;11.534;2022-10-26T02:24:58;2.57;;;2.10;;
7607;SDS011;3845;48.120;11.534;2022-10-26T02:27:26;2.47;;;1.80;;
7607;SDS011;3845;48.120;11.534;2022-10-26T02:29:54;2.93;;;1.80;;
7607;SDS011;3845;48.120;11.534;2022-10-26T02:32:24;1.93;;;1.63;;
7607;SDS011;3845;48.120;11.534;2022-10-26T02:34:51;2.63;;;1.60;;
7607;SDS011;3845;48.120;11.534;2022-10-26T02:37:18;3.57;;;1.70;;
7607;SDS011;3845;48.120;11.534;2022-10-26T02:39:44;4.07;;;1.70;;
7607;SDS011;3845;48.120;11.534;2022-10-26T02:42:11;2.50;;;1.60;;
7607;SDS011;3845;48.120;11.534;2022-10-26T02:44:45;2.43;;;1.50;;
7607;SDS011;3845;48.120;11.534;2022-10-26T02:47:13;2.10;;;1.37;;
7607;SDS011;3845;48.120;11.534;2022-10-26T02:49:38;2.23;;;1.50;;
7607;SDS011;3845;48.120;11.534;2022-10-26T02:52:18;1.93;;;1.60;;
7607;SDS011;3845;48.120;11.534;2022-10-26T02:54:59;3.30;;;1.53;;
7607;SDS011;3845;48.120;11.534;2022-10-26T02:57:28;1.97;;;1.60;;
7607;SDS011;3845;48.120;11.534;2022-10-26T02:59:57;2.37;;;1.60;;
7607;SDS011;3845;48.120;11.534;2022-10-26T03:02:23;2.03;;;1.60;;
7607;SDS011;3845;48.120;11.534;2022-10-26T03:04:48;1.77;;;1.60;;
7607;SDS011;3845;48.120;11.534;2022-10-26T03:07:21;3.53;;;1.50;;
7607;SDS011;3845;48.120;11.534;2022-10-26T03:09:47;3.60;;;1.80;;
7607;SDS011;3845;48.120;11.534;2022-10-26T03:12:12;2.20;;;1.40;;
7607;SDS011;3845;48.120;11.534;2022-10-26T03:14:38;1.90;;;1.40;;
7607;SDS011;3845;48.120;11.534;2022-10-26T03:17:05;1.80;;;1.60;;
7607;SDS011;3845;48.120;11.534;2022-10-26T03:19:30;2.03;;;1.50;;
7607;SDS011;3845;48.120;11.534;2022-10-26T03:21:55;4.30;;;1.70;;
7607;SDS011;3845;48.120;11.534;2022-10-26T03:24:21;2.10;;;1.57;;
7607;SDS011;3845;48.120;11.534;2022-10-26T03:26:46;2.20;;;1.60;;
7607;SDS011;3845;48.120;11.534;2022-10-26T03:29:11;2.87;;;1.80;;
7607;SDS011;3845;48.120;11.534;2022-10-26T03:31:36;1.70;;;1.50;;
7607;SDS011;3845;48.120;11.534;2022-10-26T03:34:02;2.57;;;1.70;;
7607;SDS011;3845;48.120;11.534;2022-10-26T03:36:27;1.70;;;1.50;;
7607;SDS011;3845;48.120;11.534;2022-10-26T03:38:52;1.70;;;1.50;;
7607;SDS011;3845;48.120;11.534;2022-10-26T03:41:17;1.73;;;1.40;;
7607;SDS011;3845;48.120;11.534;2022-10-26T03:43:43;2.30;;;1.60;;
7607;SDS011;3845;48.120;11.534;2022-10-26T03:46:08;2.63;;;1.60;;
7607;SDS011;3845;48.120;11.534;2022-10-26T03:48:33;1.60;;;1.50;;
7607;SDS011;3845;48.120;11.534;2022-10-26T03:50:59;1.83;;;1.40;;
7607;SDS011;3845;48.120;11.534;2022-10-26T03:53:24;2.70;;;1.60;;
7607;SDS011;3845;48.120;11.534;2022-10-26T03:55:50;1.97;;;1.40;;
7607;SDS011;3845;48.120;11.534;2022-10-26T03:58:15;2.03;;;1.43;;
7607;SDS011;3845;48.120;11.534;2022-10-26T04:00:40;3.63;;;1.70;;
7607;SDS011;3845;48.120;11.534;2022-10-26T04:03:06;3.40;;;1.70;;
7607;SDS011;3845;48.120;11.534;2022-10-26T04:05:31;2.40;;;1.50;;
7607;SDS011;3845;48.120;11.534;2022-10-26T04:08:00;1.50;;;1.30;;
7607;SDS011;3845;48.120;11.534;2022-10-26T04:10:28;2.10;;;1.50;;
7607;SDS011;3845;48.120;11.534;2022-10-26T04:12:54;2.47;;;1.50;;
7607;SDS011;3845;48.120;11.534;2022-10-26T04:15:19;2.57;;;2.07;;
7607;SDS011;3845;48.120;11.534;2022-10-26T04:17:46;2.20;;;1.40;;
7607;SDS011;3845;48.120;11.534;2022-10-26T04:20:11;2.00;;;1.60;;
7607;SDS011;3845;48.120;11.534;2022-10-26T04:22:37;2.80;;;1.53;;
7607;SDS011;3845;48.120;11.534;2022-10-26T04:25:03;2.03;;;1.57;;
7607;SDS011;3845;48.120;11.534;2022-10-26T04:27:29;2.47;;;1.73;;
7607;SDS011;3845;48.120;11.534;2022-10-26T04:29:54;2.30;;;1.70;;
7607;SDS011;3845;48.120;11.534;2022-10-26T04:32:19;2.27;;;1.80;;
7607;SDS011;3845;48.120;11.534;2022-10-26T04:34:45;2.47;;;1.80;;
7607;SDS011;3845;48.120;11.534;2022-10-26T04:37:10;2.60;;;1.93;;
7607;SDS011;3845;48.120;11.534;2022-10-26T04:39:35;2.70;;;1.90;;
7607;SDS011;3845;48.120;11.534;2022-10-26T04:42:01;2.47;;;1.90;;
7607;SDS011;3845;48.120;11.534;2022-10-26T04:44:26;3.70;;;1.80;;
7607;SDS011;3845;48.120;11.534;2022-10-26T04:46:51;2.50;;;1.87;;
7607;SDS011;3845;48.120;11.534;2022-10-26T04:49:16;2.87;;;2.10;;
7607;SDS011;3845;48.120;11.534;2022-10-26T04:51:42;3.43;;;2.47;;
7607;SDS011;3845;48.120;11.534;2022-10-26T04:54:07;5.10;;;2.90;;
7607;SDS011;3845;48.120;11.534;2022-10-26T04:56:32;4.83;;;2.80;;
7607;SDS011;3845;48.120;11.534;2022-10-26T04:58:58;5.60;;;2.27;;
7607;SDS011;3845;48.120;11.534;2022-10-26T05:01:23;3.33;;;2.47;;
7607;SDS011;3845;48.120;11.534;2022-10-26T05:03:49;3.27;;;2.30;;
7607;SDS011;3845;48.120;11.534;2022-10-26T05:06:15;2.77;;;2.30;;
7607;SDS011;3845;48.120;11.534;2022-10-26T05:08:40;3.73;;;2.60;;
7607;SDS011;3845;48.120;11.534;2022-10-26T05:11:05;2.83;;;2.00;;
7607;SDS011;3845;48.120;11.534;2022-10-26T05:13:30;3.13;;;2.30;;
7607;SDS011;3845;48.120;11.534;2022-10-26T05:15:56;4.00;;;2.30;;
7607;SDS011;3845;48.120;11.534;2022-10-26T05:18:21;5.50;;;3.50;;
7607;SDS011;3845;48.120;11.534;2022-10-26T05:20:46;5.00;;;3.63;;
7607;SDS011;3845;48.120;11.534;2022-10-26T05:23:14;6.07;;;3.30;;
7607;SDS011;3845;48.120;11.534;2022-10-26T05:25:42;3.33;;;2.60;;
7607;SDS011;3845;48.120;11.534;2022-10-26T05:28:08;5.00;;;2.63;;
7607;SDS011;3845;48.120;11.534;2022-10-26T05:30:37;3.27;;;2.20;;
7607;SDS011;3845;48.120;11.534;2022-10-26T05:33:03;3.07;;;2.30;;
7607;SDS011;3845;48.120;11.534;2022-10-26T05:35:29;3.60;;;1.90;;
7607;SDS011;3845;48.120;11.534;2022-10-26T05:37:55;4.77;;;2.20;;
7607;SDS011;3845;48.120;11.534;2022-10-26T05:40:20;4.33;;;2.10;;
7607;SDS011;3845;48.120;11.534;2022-10-26T05:42:45;3.33;;;2.00;;
7607;SDS011;3845;48.120;11.534;2022-10-26T05:45:11;3.40;;;2.10;;
7607;SDS011;3845;48.120;11.534;2022-10-26T05:47:40;2.03;;;1.80;;
7607;SDS011;3845;48.120;11.534;2022-10-26T05:50:06;2.70;;;1.80;;
7607;SDS011;3845;48.120;11.534;2022-10-26T05:52:39;2.77;;;2.10;;
7607;SDS011;3845;48.120;11.534;2022-10-26T05:55:08;3.10;;;2.17;;
7607;SDS011;3845;48.120;11.534;2022-10-26T05:57:35;3.30;;;2.00;;
7607;SDS011;3845;48.120;11.534;2022-10-26T06:00:01;3.63;;;2.10;;
7607;SDS011;3845;48.120;11.534;2022-10-26T06:02:31;5.30;;;4.27;;
7607;SDS011;3845;48.120;11.534;2022-10-26T06:05:01;6.57;;;4.53;;
7607;SDS011;3845;48.120;11.534;2022-10-26T06:07:28;6.20;;;3.77;;
7607;SDS011;3845;48.120;11.534;2022-10-26T06:09:53;5.10;;;3.23;;
7607;SDS011;3845;48.120;11.534;2022-10-26T06:12:19;6.50;;;3.90;;
7607;SDS011;3845;48.120;11.534;2022-10-26T06:14:44;4.37;;;3.63;;
7607;SDS011;3845;48.120;11.534;2022-10-26T06:23:23;4.20;;;2.83;;
7607;SDS011;3845;48.120;11.534;2022-10-26T06:25:46;3.13;;;2.47;;
7607;SDS011;3845;48.120;11.534;2022-10-26T06:28:25;3.00;;;2.40;;
7607;SDS011;3845;48.120;11.534;2022-10-26T06:30:59;3.33;;;2.20;;
7607;SDS011;3845;48.120;11.534;2022-10-26T06:33:24;3.60;;;2.50;;
7607;SDS011;3845;48.120;11.534;2022-10-26T06:35:55;3.23;;;2.27;;
7607;SDS011;3845;48.120;11.534;2022-10-26T06:38:27;2.57;;;1.87;;
7607;SDS011;3845;48.120;11.534;2022-10-26T06:40:54;2.93;;;2.10;;
7607;SDS011;3845;48.120;11.534;2022-10-26T06:43:24;2.63;;;1.97;;
7607;SDS011;3845;48.120;11.534;2022-10-26T06:48:50;2.53;;;2.00;;
7607;SDS011;3845;48.120;11.534;2022-10-26T06:51:17;4.20;;;2.00;;
7607;SDS011;3845;48.120;11.534;2022-10-26T06:53:47;4.77;;;2.30;;
7607;SDS011;3845;48.120;11.534;2022-10-26T06:56:24;2.70;;;2.27;;
7607;SDS011;3845;48.120;11.534;2022-10-26T06:58:51;3.90;;;2.27;;
7607;SDS011;3845;48.120;11.534;2022-10-26T07:01:17;2.30;;;2.00;;
7607;SDS011;3845;48.120;11.534;2022-10-26T07:03:43;3.93;;;2.37;;
7607;SDS011;3845;48.120;11.534;2022-10-26T07:06:08;3.23;;;2.30;;
7607;SDS011;3845;48.120;11.534;2022-10-26T07:08:34;4.73;;;2.30;;
7607;SDS011;3845;48.120;11.534;2022-10-26T07:10:59;2.90;;;2.30;;
7607;SDS011;3845;48.120;11.534;2022-10-26T07:13:24;3.13;;;1.83;;
7607;SDS011;3845;48.120;11.534;2022-10-26T07:15:50;4.20;;;2.20;;
7607;SDS011;3845;48.120;11.534;2022-10-26T07:18:15;2.70;;;2.20;;
7607;SDS011;3845;48.120;11.534;2022-10-26T07:20:40;3.90;;;2.77;;
7607;SDS011;3845;48.120;11.534;2022-10-26T07:23:06;4.43;;;2.93;;
7607;SDS011;3845;48.120;11.534;2022-10-26T07:25:34;3.07;;;2.60;;
7607;SDS011;3845;48.120;11.534;2022-10-26T07:28:02;3.83;;;2.50;;
7607;SDS011;3845;48.120;11.534;2022-10-26T07:30:29;3.67;;;2.50;;
7607;SDS011;3845;48.120;11.534;2022-10-26T07:32:58;2.97;;;2.50;;
7607;SDS011;3845;48.120;11.534;2022-10-26T07:35:25;2.73;;;2.37;;
7607;SDS011;3845;48.120;11.534;2022-10-26T07:37:50;3.77;;;3.00;;
7607;SDS011;3845;48.120;11.534;2022-10-26T07:40:15;3.93;;;2.60;;
7607;SDS011;3845;48.120;11.534;2022-10-26T07:42:41;3.30;;;2.60;;
7607;SDS011;3845;48.120;11.534;2022-10-26T07:45:06;2.77;;;2.40;;
7607;SDS011;3845;48.120;11.534;2022-10-26T07:47:32;3.10;;;2.40;;
7607;SDS011;3845;48.120;11.534;2022-10-26T07:49:57;2.83;;;2.27;;
7607;SDS011;3845;48.120;11.534;2022-10-26T07:52:22;2.90;;;2.10;;
7607;SDS011;3845;48.120;11.534;2022-10-26T07:54:47;5.53;;;2.17;;
7607;SDS011;3845;48.120;11.534;2022-10-26T07:57:14;2.20;;;2.00;;
7607;SDS011;3845;48.120;11.534;2022-10-26T07:59:40;4.73;;;2.67;;
7607;SDS011;3845;48.120;11.534;2022-10-26T08:02:06;4.67;;;2.73;;
7607;SDS011;3845;48.120;11.534;2022-10-26T08:04:33;4.77;;;2.47;;
7607;SDS011;3845;48.120;11.534;2022-10-26T08:06:58;6.23;;;2.80;;
7607;SDS011;3845;48.120;11.534;2022-10-26T08:09:24;3.47;;;2.30;;
7607;SDS011;3845;48.120;11.534;2022-10-26T08:11:49;3.73;;;2.10;;
7607;SDS011;3845;48.120;11.534;2022-10-26T08:14:14;2.27;;;1.70;;
7607;SDS011;3845;48.120;11.534;2022-10-26T08:16:39;2.93;;;1.80;;
7607;SDS011;3845;48.120;11.534;2022-10-26T08:19:05;2.27;;;1.80;;
7607;SDS011;3845;48.120;11.534;2022-10-26T08:21:30;2.00;;;1.80;;
7607;SDS011;3845;48.120;11.534;2022-10-26T08:23:55;2.00;;;1.73;;
7607;SDS011;3845;48.120;11.534;2022-10-26T08:26:20;2.63;;;1.60;;
7607;SDS011;3845;48.120;11.534;2022-10-26T08:28:47;2.27;;;1.73;;
7607;SDS011;3845;48.120;11.534;2022-10-26T08:31:12;2.87;;;1.60;;
7607;SDS011;3845;48.120;11.534;2022-10-26T08:33:38;3.70;;;1.70;;
7607;SDS011;3845;48.120;11.534;2022-10-26T08:36:03;2.07;;;1.70;;
7607;SDS011;3845;48.120;11.534;2022-10-26T08:38:29;1.70;;;1.50;;
7607;SDS011;3845;48.120;11.534;2022-10-26T08:40:55;1.90;;;1.70;;
7607;SDS011;3845;48.120;11.534;2022-10-26T08:43:28;2.30;;;1.60;;
7607;SDS011;3845;48.120;11.534;2022-10-26T08:46:12;4.40;;;1.70;;
7607;SDS011;3845;48.120;11.534;2022-10-26T08:48:45;3.37;;;1.83;;
7607;SDS011;3845;48.120;11.534;2022-10-26T08:51:27;2.87;;;1.53;;
7607;SDS011;3845;48.120;11.534;2022-10-26T08:53:59;2.47;;;1.67;;
7607;SDS011;3845;48.120;11.534;2022-10-26T08:56:31;2.87;;;1.70;;
7607;SDS011;3845;48.120;11.534;2022-10-26T08:59:11;4.07;;;2.30;;
7607;SDS011;3845;48.120;11.534;2022-10-26T09:01:42;3.10;;;2.30;;
7607;SDS011;3845;48.120;11.534;2022-10-26T09:04:11;3.10;;;2.60;;
7607;SDS011;3845;48.120;11.534;2022-10-26T09:07:23;2.93;;;2.20;;
7607;SDS011;3845;48.120;11.534;2022-10-26T09:12:47;2.93;;;1.63;;
7607;SDS011;3845;48.120;11.534;2022-10-26T09:15:39;2.13;;;1.60;;
7607;SDS011;3845;48.120;11.534;2022-10-26T09:26:28;2.27;;;1.40;;
7607;SDS011;3845;48.120;11.534;2022-10-26T09:29:04;4.33;;;1.50;;
7607;SDS011;3845;48.120;11.534;2022-10-26T09:31:31;3.80;;;1.57;;
7607;SDS011;3845;48.120;11.534;2022-10-26T09:34:04;3.90;;;1.53;;
7607;SDS011;3845;48.120;11.534;2022-10-26T09:36:31;1.97;;;1.30;;
7607;SDS011;3845;48.120;11.534;2022-10-26T09:38:59;2.63;;;1.50;;
7607;SDS011;3845;48.120;11.534;2022-10-26T09:41:31;4.87;;;3.53;;
7607;SDS011;3845;48.120;11.534;2022-10-26T09:44:11;4.07;;;3.13;;
7607;SDS011;3845;48.120;11.534;2022-10-26T09:46:45;3.70;;;2.37;;
7607;SDS011;3845;48.120;11.534;2022-10-26T09:49:48;2.67;;;2.00;;
7607;SDS011;3845;48.120;11.534;2022-10-26T09:52:16;5.90;;;1.90;;
7607;SDS011;3845;48.120;11.534;2022-10-26T09:54:42;4.40;;;1.80;;
7607;SDS011;3845;48.120;11.534;2022-10-26T09:57:07;3.73;;;1.70;;
7607;SDS011;3845;48.120;11.534;2022-10-26T09:59:34;2.23;;;1.40;;
7607;SDS011;3845;48.120;11.534;2022-10-26T10:02:14;3.47;;;1.50;;
7607;SDS011;3845;48.120;11.534;2022-10-26T10:04:57;3.47;;;1.50;;
7607;SDS011;3845;48.120;11.534;2022-10-26T10:07:23;3.07;;;1.30;;
7607;SDS011;3845;48.120;11.534;2022-10-26T10:12:43;6.50;;;2.47;;
7607;SDS011;3845;48.120;11.534;2022-10-26T10:15:16;45.70;;;13.13;;
7607;SDS011;3845;48.120;11.534;2022-10-26T10:17:51;24.27;;;8.60;;
7607;SDS011;3845;48.120;11.534;2022-10-26T10:20:20;20.90;;;8.60;;
7607;SDS011;3845;48.120;11.534;2022-10-26T10:22:57;23.27;;;8.83;;
7607;SDS011;3845;48.120;11.534;2022-10-26T10:25:31;10.23;;;6.67;;
7607;SDS011;3845;48.120;11.534;2022-10-26T10:27:59;5.10;;;3.17;;
7607;SDS011;3845;48.120;11.534;2022-10-26T10:30:29;7.57;;;3.40;;
7607;SDS011;3845;48.120;11.534;2022-10-26T10:33:02;4.70;;;3.37;;
7607;SDS011;3845;48.120;11.534;2022-10-26T10:35:31;7.67;;;3.83;;
7607;SDS011;3845;48.120;11.534;2022-10-26T10:37:57;5.33;;;2.87;;
7607;SDS011;3845;48.120;11.534;2022-10-26T10:40:23;3.67;;;1.67;;
7607;SDS011;3845;48.120;11.534;2022-10-26T10:42:50;4.30;;;1.97;;
7607;SDS011;3845;48.120;11.534;2022-10-26T10:45:20;5.13;;;2.20;;
7607;SDS011;3845;48.120;11.534;2022-10-26T10:50:59;5.40;;;2.50;;
7607;SDS011;3845;48.120;11.534;2022-10-26T10:53:49;4.50;;;2.33;;
7607;SDS011;3845;48.120;11.534;2022-10-26T11:07:34;7.30;;;2.70;;
7607;SDS011;3845;48.120;11.534;2022-10-26T11:10:07;9.10;;;2.77;;
7607;SDS011;3845;48.120;11.534;2022-10-26T11:12:40;5.63;;;3.63;;
7607;SDS011;3845;48.120;11.534;2022-10-26T11:15:14;6.10;;;3.27;;
7607;SDS011;3845;48.120;11.534;2022-10-26T11:20:31;7.57;;;2.23;;
7607;SDS011;3845;48.120;11.534;2022-10-26T11:23:16;7.57;;;3.83;;
7607;SDS011;3845;48.120;11.534;2022-10-26T11:28:48;5.37;;;2.53;;
7607;SDS011;3845;48.120;11.534;2022-10-26T11:31:20;4.73;;;2.27;;
7607;SDS011;3845;48.120;11.534;2022-10-26T11:36:25;4.63;;;2.03;;
7607;SDS011;3845;48.120;11.534;2022-10-26T11:41:35;5.30;;;2.00;;
7607;SDS011;3845;48.120;11.534;2022-10-26T11:46:50;4.50;;;1.90;;
7607;SDS011;3845;48.120;11.534;2022-10-26T11:49:31;4.80;;;2.00;;
7607;SDS011;3845;48.120;11.534;2022-10-26T11:55:00;6.90;;;2.27;;
7607;SDS011;3845;48.120;11.534;2022-10-26T11:57:28;5.63;;;2.33;;
7607;SDS011;3845;48.120;11.534;2022-10-26T12:00:04;6.60;;;2.10;;
7607;SDS011;3845;48.120;11.534;2022-10-26T12:02:31;14.13;;;2.90;;
7607;SDS011;3845;48.120;11.534;2022-10-26T12:08:19;5.57;;;2.83;;
7607;SDS011;3845;48.120;11.534;2022-10-26T12:10:59;6.80;;;2.70;;
7607;SDS011;3845;48.120;11.534;2022-10-26T12:16:28;4.93;;;2.07;;
7607;SDS011;3845;48.120;11.534;2022-10-26T12:19:05;6.47;;;2.57;;
7607;SDS011;3845;48.120;11.534;2022-10-26T12:21:36;7.23;;;2.20;;
7607;SDS011;3845;48.120;11.534;2022-10-26T12:24:23;10.97;;;3.20;;
7607;SDS011;3845;48.120;11.534;2022-10-26T12:26:54;6.20;;;3.97;;
7607;SDS011;3845;48.120;11.534;2022-10-26T12:29:32;7.33;;;3.73;;
7607;SDS011;3845;48.120;11.534;2022-10-26T12:32:02;5.97;;;2.93;;
7607;SDS011;3845;48.120;11.534;2022-10-26T12:39:32;8.03;;;3.07;;
7607;SDS011;3845;48.120;11.534;2022-10-26T12:44:33;7.20;;;3.17;;
7607;SDS011;3845;48.120;11.534;2022-10-26T12:46:58;7.13;;;2.63;;
7607;SDS011;3845;48.120;11.534;2022-10-26T12:52:48;10.13;;;2.93;;
7607;SDS011;3845;48.120;11.534;2022-10-26T12:58:13;4.13;;;2.60;;
7607;SDS011;3845;48.120;11.534;2022-10-26T13:08:22;6.30;;;2.80;;
7607;SDS011;3845;48.120;11.534;2022-10-26T13:11:10;7.80;;;2.70;;
7607;SDS011;3845;48.120;11.534;2022-10-26T13:13:38;4.60;;;2.30;;
7607;SDS011;3845;48.120;11.534;2022-10-26T13:16:05;9.63;;;3.90;;
7607;SDS011;3845;48.120;11.534;2022-10-26T13:18:40;6.97;;;3.20;;
7607;SDS011;3845;48.120;11.534;2022-10-26T13:21:14;10.43;;;3.30;;
7607;SDS011;3845;48.120;11.534;2022-10-26T13:23:42;7.87;;;3.03;;
7607;SDS011;3845;48.120;11.534;2022-10-26T13:26:17;6.10;;;2.70;;
7607;SDS011;3845;48.120;11.534;2022-10-26T13:28:45;8.27;;;2.83;;
7607;SDS011;3845;48.120;11.534;2022-10-26T13:33:52;4.80;;;2.70;;
7607;SDS011;3845;48.120;11.534;2022-10-26T13:41:46;8.33;;;2.80;;
7607;SDS011;3845;48.120;11.534;2022-10-26T13:44:34;4.93;;;2.70;;
7607;SDS011;3845;48.120;11.534;2022-10-26T13:47:10;6.47;;;2.80;;
7607;SDS011;3845;48.120;11.534;2022-10-26T13:49:40;8.17;;;2.70;;
7607;SDS011;3845;48.120;11.534;2022-10-26T13:52:14;13.50;;;5.20;;
7607;SDS011;3845;48.120;11.534;2022-10-26T13:54:46;9.20;;;4.97;;
7607;SDS011;3845;48.120;11.534;2022-10-26T13:57:18;8.57;;;3.70;;
7607;SDS011;3845;48.120;11.534;2022-10-26T13:59:45;5.40;;;2.77;;
7607;SDS011;3845;48.120;11.534;2022-10-26T14:04:39;6.47;;;2.30;;
7607;SDS011;3845;48.120;11.534;2022-10-26T14:07:05;6.40;;;2.37;;
7607;SDS011;3845;48.120;11.534;2022-10-26T14:09:30;7.33;;;2.70;;
7607;SDS011;3845;48.120;11.534;2022-10-26T14:11:56;8.27;;;2.47;;
7607;SDS011;3845;48.120;11.534;2022-10-26T14:14:30;5.90;;;2.47;;
7607;SDS011;3845;48.120;11.534;2022-10-26T14:16:57;8.37;;;3.20;;
7607;SDS011;3845;48.120;11.534;2022-10-26T14:19:27;4.63;;;2.70;;
7607;SDS011;3845;48.120;11.534;2022-10-26T14:21:53;4.67;;;2.40;;
7607;SDS011;3845;48.120;11.534;2022-10-26T14:24:23;4.93;;;2.40;;
7607;SDS011;3845;48.120;11.534;2022-10-26T14:26:51;9.37;;;2.50;;
7607;SDS011;3845;48.120;11.534;2022-10-26T14:29:18;7.33;;;2.80;;
7607;SDS011;3845;48.120;11.534;2022-10-26T14:31:45;8.27;;;3.73;;
7607;SDS011;3845;48.120;11.534;2022-10-26T14:34:11;12.37;;;8.43;;
7607;SDS011;3845;48.120;11.534;2022-10-26T14:39:35;7.47;;;3.53;;
7607;SDS011;3845;48.120;11.534;2022-10-26T14:42:14;5.43;;;3.13;;
7607;SDS011;3845;48.120;11.534;2022-10-26T14:44:49;4.93;;;2.53;;
7607;SDS011;3845;48.120;11.534;2022-10-26T14:47:18;4.07;;;2.63;;
7607;SDS011;3845;48.120;11.534;2022-10-26T14:49:51;5.20;;;2.33;;
7607;SDS011;3845;48.120;11.534;2022-10-26T14:52:23;5.53;;;2.47;;
7607;SDS011;3845;48.120;11.534;2022-10-26T14:55:00;6.10;;;2.90;;
7607;SDS011;3845;48.120;11.534;2022-10-26T14:57:33;5.60;;;2.60;;
7607;SDS011;3845;48.120;11.534;2022-10-26T15:00:09;4.93;;;2.03;;
7607;SDS011;3845;48.120;11.534;2022-10-26T15:02:39;7.23;;;4.50;;
7607;SDS011;3845;48.120;11.534;2022-10-26T15:07:48;8.23;;;4.33;;
7607;SDS011;3845;48.120;11.534;2022-10-26T15:13:08;7.83;;;4.50;;
7607;SDS011;3845;48.120;11.534;2022-10-26T15:15:44;6.83;;;4.40;;
7607;SDS011;3845;48.120;11.534;2022-10-26T15:18:18;7.30;;;3.80;;
7607;SDS011;3845;48.120;11.534;2022-10-26T15:20:54;6.77;;;3.53;;
7607;SDS011;3845;48.120;11.534;2022-10-26T15:23:21;6.20;;;2.93;;
7607;SDS011;3845;48.120;11.534;2022-10-26T15:25:54;6.80;;;2.70;;
7607;SDS011;3845;48.120;11.534;2022-10-26T15:28:23;5.27;;;3.77;;
7607;SDS011;3845;48.120;11.534;2022-10-26T15:31:07;4.70;;;3.30;;
7607;SDS011;3845;48.120;11.534;2022-10-26T15:36:18;5.37;;;3.10;;
7607;SDS011;3845;48.120;11.534;2022-10-26T15:38:44;4.73;;;2.67;;
7607;SDS011;3845;48.120;11.534;2022-10-26T15:41:14;5.00;;;2.40;;
7607;SDS011;3845;48.120;11.534;2022-10-26T15:43:48;4.90;;;2.70;;
7607;SDS011;3845;48.120;11.534;2022-10-26T15:46:14;4.83;;;2.47;;
7607;SDS011;3845;48.120;11.534;2022-10-26T15:48:40;5.40;;;2.90;;
7607;SDS011;3845;48.120;11.534;2022-10-26T15:51:06;4.50;;;2.97;;
7607;SDS011;3845;48.120;11.534;2022-10-26T15:53:35;4.10;;;2.70;;
7607;SDS011;3845;48.120;11.534;2022-10-26T15:56:00;9.40;;;4.77;;
7607;SDS011;3845;48.120;11.534;2022-10-26T15:58:27;8.97;;;4.33;;
7607;SDS011;3845;48.120;11.534;2022-10-26T16:00:53;9.43;;;6.50;;
7607;SDS011;3845;48.120;11.534;2022-10-26T16:03:19;9.17;;;6.20;;
7607;SDS011;3845;48.120;11.534;2022-10-26T16:05:55;7.67;;;5.27;;
7607;SDS011;3845;48.120;11.534;2022-10-26T16:08:22;7.67;;;4.37;;
7607;SDS011;3845;48.120;11.534;2022-10-26T16:10:47;5.37;;;4.13;;
7607;SDS011;3845;48.120;11.534;2022-10-26T16:13:14;5.00;;;3.67;;
7607;SDS011;3845;48.120;11.534;2022-10-26T16:15:40;5.37;;;3.37;;
7607;SDS011;3845;48.120;11.534;2022-10-26T16:18:05;5.33;;;3.30;;
7607;SDS011;3845;48.120;11.534;2022-10-26T16:20:31;5.53;;;3.10;;
7607;SDS011;3845;48.120;11.534;2022-10-26T16:22:56;5.80;;;3.07;;
7607;SDS011;3845;48.120;11.534;2022-10-26T16:25:25;4.77;;;2.93;;
7607;SDS011;3845;48.120;11.534;2022-10-26T16:27:50;3.97;;;2.70;;
7607;SDS011;3845;48.120;11.534;2022-10-26T16:30:16;5.83;;;3.17;;
7607;SDS011;3845;48.120;11.534;2022-10-26T16:32:43;5.37;;;3.43;;
7607;SDS011;3845;48.120;11.534;2022-10-26T16:35:08;5.83;;;3.70;;
7607;SDS011;3845;48.120;11.534;2022-10-26T16:37:34;6.93;;;4.30;;
7607;SDS011;3845;48.120;11.534;2022-10-26T16:40:00;10.63;;;7.97;;
7607;SDS011;3845;48.120;11.534;2022-10-26T16:42:25;21.33;;;17.37;;
7607;SDS011;3845;48.120;11.534;2022-10-26T16:44:52;15.93;;;11.60;;
7607;SDS011;3845;48.120;11.534;2022-10-26T16:47:17;10.97;;;7.63;;
7607;SDS011;3845;48.120;11.534;2022-10-26T16:49:43;10.47;;;6.97;;
7607;SDS011;3845;48.120;11.534;2022-10-26T16:52:09;8.23;;;6.30;;
7607;SDS011;3845;48.120;11.534;2022-10-26T16:54:34;9.43;;;5.93;;
7607;SDS011;3845;48.120;11.534;2022-10-26T16:57:00;10.80;;;6.07;;
7607;SDS011;3845;48.120;11.534;2022-10-26T16:59:25;8.60;;;5.90;;
7607;SDS011;3845;48.120;11.534;2022-10-26T17:01:51;9.17;;;5.00;;
7607;SDS011;3845;48.120;11.534;2022-10-26T17:04:16;7.83;;;4.83;;
7607;SDS011;3845;48.120;11.534;2022-10-26T17:06:42;6.70;;;4.17;;
7607;SDS011;3845;48.120;11.534;2022-10-26T17:09:07;6.63;;;4.53;;
7607;SDS011;3845;48.120;11.534;2022-10-26T17:11:32;6.53;;;4.07;;
7607;SDS011;3845;48.120;11.534;2022-10-26T17:13:57;7.47;;;4.30;;
7607;SDS011;3845;48.120;11.534;2022-10-26T17:16:23;6.87;;;4.20;;
7607;SDS011;3845;48.120;11.534;2022-10-26T17:18:49;5.13;;;3.73;;